PDT,Max TemperatureF,Mean TemperatureF,Min TemperatureF,Max Dew PointF,MeanDew PointF,Min DewpointF,Max Humidity, Mean Humidity, Min Humidity, Max Sea Level PressureIn, Mean Sea Level PressureIn, Min Sea Level PressureIn, Max VisibilityMiles, Mean VisibilityMiles, Min VisibilityMiles, Max Wind SpeedMPH, Mean Wind SpeedMPH, Max Gust SpeedMPH,PrecipitationIn, CloudCover, Events, WindDirDegrees
2013-9-1,86,74,62,65,60,56,84,64,44,29.94,29.92,29.89,10,10,9,16,4,40,0.00,2,,295
2013-9-2,82,71,60,63,59,57,90,72,54,29.95,29.91,29.88,10,10,9,14,5,18,0.00,2,,312
2013-9-3,82,71,60,60,56,50,90,64,37,29.96,29.92,29.89,10,10,7,24,8,25,0.00,0,,304
2013-9-4,77,67,57,57,56,54,93,72,50,29.99,29.96,29.93,10,9,4,18,6,,0.00,0,,310
2013-9-5,79,69,59,57,56,54,90,69,47,29.97,29.94,29.91,10,9,5,17,6,,0.00,3,,266
2013-9-6,79,68,56,57,54,51,87,66,45,29.93,29.89,29.86,10,9,7,15,3,,0.00,0,,305
2013-9-7,76,65,53,58,55,50,93,74,54,29.92,29.89,29.86,10,5,0,13,4,17,0.00,4,Fog,299
2013-9-8,73,65,57,56,55,55,93,75,57,29.91,29.87,29.82,10,5,0,13,4,,0.00,6,Fog,299
2013-9-9,73,65,56,57,56,54,93,75,57,29.84,29.81,29.79,10,5,0,14,5,,0.00,6,Fog,305
2013-9-10,75,67,58,58,56,55,90,72,53,29.95,29.89,29.81,10,8,2,14,4,18,0.00,6,,286
2013-9-11,75,65,55,58,56,53,90,72,54,30.03,29.99,29.95,10,8,2,16,4,24,0.00,5,,307
2013-9-12,73,64,54,58,55,50,93,77,61,29.99,29.95,29.90,10,6,1,22,7,25,0.00,6,,283
2013-9-13,73,65,56,58,56,54,100,81,61,29.90,29.83,29.75,10,6,0,20,5,24,0.00,4,Fog,304
2013-9-14,73,65,56,55,55,53,93,75,57,29.79,29.76,29.72,10,5,0,18,6,,0.00,4,Fog,317
2013-9-15,75,64,53,55,54,51,93,71,49,29.84,29.81,29.75,10,9,2,18,6,,0.00,1,,264
2013-9-16,73,63,52,57,54,50,93,75,57,29.88,29.85,29.82,10,6,0,14,6,20,0.00,5,Fog,217
2013-9-17,73,64,55,55,53,51,93,71,49,29.88,29.84,29.79,10,8,5,29,9,30,0.00,4,,281
2013-9-18,87,69,51,55,51,46,93,60,27,29.85,29.81,29.75,10,7,0,30,9,40,0.00,2,Fog,312
2013-9-19,85,68,51,54,50,46,89,60,31,29.83,29.80,29.77,10,9,6,14,4,38,0.00,0,,310
2013-9-20,72,63,53,57,54,50,93,73,53,29.94,29.87,29.81,10,7,0,22,5,39,0.00,6,Fog,254
2013-9-21,76,67,57,59,57,55,93,73,53,29.93,29.90,29.88,10,8,0,18,7,,T,7,Fog-Rain,323
2013-9-22,75,63,50,55,53,48,96,69,41,29.95,29.91,29.87,10,6,0,29,10,29,0.00,2,Fog,305
2013-9-23,92,75,58,51,47,43,75,48,20,29.92,29.88,29.84,10,10,10,21,10,24,0.00,0,,344
2013-9-24,85,69,53,54,49,45,83,55,27,29.95,29.91,29.88,10,10,8,21,6,21,0.00,0,,286
2013-9-25,71,59,47,51,48,46,93,67,41,29.90,29.85,29.78,10,7,2,33,13,41,0.00,1,,286
2013-9-26,72,60,48,49,46,43,93,64,35,29.99,29.89,29.82,10,8,3,28,8,32,0.00,0,,302
2013-9-27,82,63,43,45,40,32,89,54,19,30.04,30.00,29.96,10,10,8,26,8,32,0.00,0,,308
2013-9-28,88,68,47,44,37,28,63,38,12,30.07,30.03,30.01,10,10,10,16,5,20,0.00,0,,297
2013-9-29,81,63,45,54,44,34,83,52,20,30.09,30.05,30.01,10,10,10,18,5,22,0.00,0,,291
2013-9-30,83,67,50,57,54,46,93,64,34,30.04,29.98,29.93,10,6,0,25,9,31,0.00,2,Fog,296